createdAt,value
2023-06-06T00:01:37.612Z,13.50
2023-06-06T00:04:05.434Z,13.48
2023-06-06T00:06:34.718Z,13.47
2023-06-06T00:09:06.009Z,13.44
2023-06-06T00:11:37.253Z,13.40
2023-06-06T00:14:07.078Z,13.34
2023-06-06T00:16:35.545Z,13.23
2023-06-06T00:19:03.274Z,13.19
2023-06-06T00:21:33.954Z,13.16
2023-06-06T00:24:02.318Z,13.16
2023-06-06T00:26:30.392Z,13.11
2023-06-06T00:28:58.017Z,13.10
2023-06-06T00:31:25.732Z,13.12
2023-06-06T00:33:53.446Z,13.03
2023-06-06T00:36:20.971Z,12.95
2023-06-06T00:38:48.945Z,12.95
2023-06-06T00:41:16.617Z,12.94
2023-06-06T00:43:44.188Z,12.93
2023-06-06T00:46:12.861Z,12.93
2023-06-06T00:48:40.739Z,12.96
2023-06-06T00:51:09.659Z,12.97
2023-06-06T00:53:38.192Z,13.00
2023-06-06T00:56:05.833Z,12.99
2023-06-06T00:58:36.019Z,12.99
2023-06-06T01:01:06.212Z,12.99
2023-06-06T01:03:34.537Z,12.95
2023-06-06T01:06:02.118Z,12.94
2023-06-06T01:08:29.667Z,12.92
2023-06-06T01:10:57.779Z,12.88
2023-06-06T01:13:25.379Z,12.84
2023-06-06T01:15:53.149Z,12.84
2023-06-06T01:18:21.561Z,12.85
2023-06-06T01:20:49.069Z,12.87
2023-06-06T01:23:16.562Z,12.86
2023-06-06T01:25:45.374Z,12.90
2023-06-06T01:28:17.189Z,12.93
2023-06-06T01:30:44.768Z,12.93
2023-06-06T01:33:20.259Z,12.94
2023-06-06T01:35:47.779Z,12.94
2023-06-06T01:38:15.336Z,12.95
2023-06-06T01:40:42.985Z,12.93
2023-06-06T01:43:10.549Z,12.86
2023-06-06T01:45:38.672Z,12.82
2023-06-06T01:48:06.306Z,12.82
2023-06-06T01:50:34.384Z,12.84
2023-06-06T01:53:01.973Z,12.85
2023-06-06T01:55:29.556Z,12.84
2023-06-06T01:57:59.912Z,12.84
2023-06-06T02:00:27.887Z,12.83
2023-06-06T02:02:55.625Z,12.80
2023-06-06T02:05:23.235Z,12.79
2023-06-06T02:07:50.909Z,12.77
2023-06-06T02:10:18.549Z,12.72
2023-06-06T02:12:46.441Z,12.72
2023-06-06T02:15:15.151Z,12.73
2023-06-06T02:17:42.951Z,12.74
2023-06-06T02:20:12.145Z,12.78
2023-06-06T02:22:39.730Z,12.78
2023-06-06T02:25:08.316Z,12.77
2023-06-06T02:27:36.326Z,12.75
2023-06-06T02:30:04.419Z,12.75
2023-06-06T02:32:32.574Z,12.74
2023-06-06T02:35:04.328Z,12.72
2023-06-06T02:37:34.552Z,12.70
2023-06-06T02:40:09.727Z,12.69
2023-06-06T02:42:39.979Z,12.67
2023-06-06T02:45:07.966Z,12.65
2023-06-06T02:47:36.226Z,12.62
2023-06-06T02:50:04.091Z,12.61
2023-06-06T02:52:34.626Z,12.57
2023-06-06T02:55:02.182Z,12.53
2023-06-06T02:57:30.007Z,12.53
2023-06-06T03:00:00.304Z,12.53
2023-06-06T03:02:28.588Z,12.55
2023-06-06T03:04:57.072Z,12.58
2023-06-06T03:07:24.880Z,12.56
2023-06-06T03:09:52.767Z,12.55
2023-06-06T03:12:20.478Z,12.54
2023-06-06T03:14:56.444Z,12.56
2023-06-06T03:17:26.280Z,12.57
2023-06-06T03:19:54.097Z,12.56
2023-06-06T03:22:21.564Z,12.56
2023-06-06T03:24:51.423Z,12.60
2023-06-06T03:27:19.498Z,12.65
2023-06-06T03:29:47.190Z,12.70
2023-06-06T03:32:14.862Z,12.74
2023-06-06T03:34:42.978Z,12.76
2023-06-06T03:37:11.312Z,12.76
2023-06-06T03:39:40.613Z,12.75
2023-06-06T03:42:08.500Z,12.79
2023-06-06T03:44:36.118Z,12.80
2023-06-06T03:47:03.986Z,12.83
2023-06-06T03:49:37.640Z,12.88
2023-06-06T03:52:05.414Z,12.94
2023-06-06T03:54:37.854Z,12.95
2023-06-06T03:57:05.409Z,12.95
2023-06-06T03:59:33.167Z,12.99
2023-06-06T04:02:01.057Z,13.06
2023-06-06T04:04:28.655Z,13.12
2023-06-06T04:06:56.516Z,13.16
2023-06-06T04:09:24.159Z,13.19
2023-06-06T04:11:51.744Z,13.25
2023-06-06T04:14:19.769Z,13.31
2023-06-06T04:16:49.256Z,13.38
2023-06-06T04:19:16.932Z,13.40
2023-06-06T04:21:44.552Z,13.43
2023-06-06T04:24:12.530Z,13.48
2023-06-06T04:26:42.163Z,13.54
2023-06-06T04:29:10.199Z,13.56
2023-06-06T04:31:42.418Z,13.60
2023-06-06T04:34:11.014Z,13.65
2023-06-06T04:36:42.477Z,13.68
2023-06-06T04:39:13.741Z,13.70
2023-06-06T04:44:16.261Z,13.59
2023-06-06T04:46:44.781Z,13.53
2023-06-06T04:49:20.291Z,13.47
2023-06-06T04:51:47.804Z,13.44
2023-06-06T04:54:15.410Z,13.41
2023-06-06T04:56:43.426Z,13.43
2023-06-06T04:59:10.956Z,13.50
2023-06-06T05:01:39.331Z,13.55
2023-06-06T05:04:08.400Z,13.59
2023-06-06T05:06:36.269Z,13.64
2023-06-06T05:09:05.660Z,13.64
2023-06-06T05:11:33.326Z,13.63
2023-06-06T05:14:01.004Z,13.66
2023-06-06T05:16:28.634Z,13.69
2023-06-06T05:18:56.750Z,13.70
2023-06-06T05:21:24.380Z,13.73
2023-06-06T05:23:52.073Z,13.79
2023-06-06T05:26:19.798Z,13.86
2023-06-06T05:28:47.320Z,13.94
2023-06-06T05:31:18.266Z,13.98
2023-06-06T05:33:46.074Z,14.02
2023-06-06T05:36:13.646Z,14.10
2023-06-06T05:38:41.501Z,14.17
2023-06-06T05:41:09.149Z,14.25
2023-06-06T05:43:37.088Z,14.32
2023-06-06T05:46:05.337Z,14.39
2023-06-06T05:48:33.087Z,14.43
2023-06-06T05:51:00.970Z,14.46
2023-06-06T05:53:29.350Z,14.45
2023-06-06T05:55:57.091Z,14.44
2023-06-06T05:58:24.715Z,14.43
2023-06-06T06:00:52.403Z,14.45
2023-06-06T06:03:22.505Z,14.48
2023-06-06T06:05:50.950Z,14.50
2023-06-06T06:08:18.944Z,14.51
2023-06-06T06:10:47.000Z,14.55
2023-06-06T06:13:17.151Z,14.57
2023-06-06T06:15:44.848Z,14.59
2023-06-06T06:18:12.678Z,14.66
2023-06-06T06:20:40.401Z,14.70
2023-06-06T06:23:08.080Z,14.78
2023-06-06T06:25:38.860Z,14.86
2023-06-06T06:28:06.699Z,14.96
2023-06-06T06:30:34.375Z,15.07
2023-06-06T06:33:03.254Z,15.15
2023-06-06T06:35:30.933Z,15.22
2023-06-06T06:37:58.437Z,15.30
2023-06-06T06:40:26.055Z,15.38
2023-06-06T06:42:53.597Z,15.44
2023-06-06T06:45:24.812Z,15.51
2023-06-06T06:47:52.780Z,15.58
2023-06-06T06:50:21.469Z,15.64
2023-06-06T06:52:50.202Z,15.66
2023-06-06T06:55:18.045Z,15.70
2023-06-06T06:57:47.931Z,15.73
2023-06-06T07:00:16.673Z,15.78
2023-06-06T07:02:45.534Z,15.80
2023-06-06T07:05:13.549Z,15.81
2023-06-06T07:07:41.344Z,15.84
2023-06-06T07:10:09.004Z,15.83
2023-06-06T07:12:36.495Z,15.81
2023-06-06T07:15:06.405Z,15.76
2023-06-06T07:17:34.026Z,15.70
2023-06-06T07:20:06.323Z,15.63
2023-06-06T07:22:37.363Z,15.52
2023-06-06T07:25:05.424Z,15.45
2023-06-06T07:27:35.386Z,15.49
2023-06-06T07:30:03.125Z,15.49
2023-06-06T07:32:30.727Z,15.48
2023-06-06T07:34:58.618Z,15.51
2023-06-06T07:37:26.314Z,15.54
2023-06-06T07:39:53.954Z,15.50
2023-06-06T07:42:21.816Z,15.48
2023-06-06T07:44:54.761Z,15.48
2023-06-06T07:47:22.386Z,15.46
2023-06-06T07:49:51.386Z,15.49
2023-06-06T07:52:18.992Z,15.56
2023-06-06T07:54:46.830Z,15.64
2023-06-06T07:57:18.141Z,15.72
2023-06-06T07:59:46.416Z,15.82
2023-06-06T08:02:17.110Z,15.90
2023-06-06T08:04:47.053Z,15.96
2023-06-06T08:07:14.878Z,16.00
2023-06-06T08:09:43.306Z,16.05
2023-06-06T08:12:11.166Z,16.09
2023-06-06T08:14:38.894Z,16.15
2023-06-06T08:17:06.938Z,16.20
2023-06-06T08:19:35.706Z,16.25
2023-06-06T08:22:03.861Z,16.25
2023-06-06T08:24:31.845Z,16.27
2023-06-06T08:26:59.856Z,16.32
2023-06-06T08:29:27.822Z,16.40
2023-06-06T08:31:55.713Z,16.44
2023-06-06T08:34:23.724Z,16.47
2023-06-06T08:36:51.728Z,16.49
2023-06-06T08:39:21.935Z,16.52
2023-06-06T08:41:49.474Z,16.57
2023-06-06T08:44:17.476Z,16.57
2023-06-06T08:46:45.086Z,16.56
2023-06-06T08:49:15.575Z,16.54
2023-06-06T08:51:43.268Z,16.53
2023-06-06T08:54:10.795Z,16.49
2023-06-06T08:56:39.109Z,16.47
2023-06-06T08:59:06.736Z,16.49
2023-06-06T09:01:35.111Z,16.47
2023-06-06T09:04:02.872Z,16.45
2023-06-06T09:06:34.077Z,16.49
2023-06-06T09:09:01.661Z,16.49
2023-06-06T09:11:29.308Z,16.45
2023-06-06T09:13:58.042Z,16.46
2023-06-06T09:16:27.571Z,16.53
2023-06-06T09:18:56.033Z,16.60
2023-06-06T09:21:23.614Z,16.52
2023-06-06T09:23:57.392Z,16.40
2023-06-06T09:26:27.289Z,16.32
2023-06-06T09:28:54.832Z,16.32
2023-06-06T09:31:24.745Z,16.35
2023-06-06T09:33:52.453Z,16.35
2023-06-06T09:36:20.738Z,16.36
2023-06-06T09:38:48.307Z,16.43
2023-06-06T09:41:16.357Z,16.43
2023-06-06T09:43:43.968Z,16.41
2023-06-06T09:46:11.928Z,16.35
2023-06-06T09:48:39.896Z,16.41
2023-06-06T09:51:09.206Z,16.45
2023-06-06T09:53:37.667Z,16.43
2023-06-06T09:56:06.586Z,16.45
2023-06-06T09:58:35.337Z,16.51
2023-06-06T10:01:03.598Z,16.50
2023-06-06T10:03:33.122Z,16.44
2023-06-06T10:06:01.578Z,16.44
2023-06-06T10:08:29.432Z,16.42
2023-06-06T10:10:57.306Z,16.39
2023-06-06T10:13:26.192Z,16.32
2023-06-06T10:15:53.860Z,16.32
2023-06-06T10:18:21.565Z,16.28
2023-06-06T10:20:49.445Z,16.25
2023-06-06T10:23:17.091Z,16.21
2023-06-06T10:25:44.811Z,16.16
2023-06-06T10:28:12.474Z,16.11
2023-06-06T10:30:40.344Z,16.15
2023-06-06T10:33:08.225Z,16.19
2023-06-06T10:35:35.907Z,16.26
2023-06-06T10:38:04.383Z,16.36
2023-06-06T10:40:32.020Z,16.50
2023-06-06T10:42:59.712Z,16.55
2023-06-06T10:45:27.266Z,16.52
2023-06-06T10:47:54.974Z,16.47
2023-06-06T10:50:22.831Z,16.47
2023-06-06T10:52:50.586Z,16.48
2023-06-06T10:55:18.332Z,16.49
2023-06-06T10:57:46.780Z,16.51
2023-06-06T11:00:14.610Z,16.51
2023-06-06T11:02:45.029Z,16.54
2023-06-06T11:05:12.763Z,16.55
2023-06-06T11:07:41.067Z,16.54
2023-06-06T11:10:08.734Z,16.57
2023-06-06T11:12:36.320Z,16.64
2023-06-06T11:15:03.972Z,16.63
2023-06-06T11:17:33.336Z,16.66
2023-06-06T11:20:01.166Z,16.59
2023-06-06T11:22:30.310Z,16.54
2023-06-06T11:24:58.045Z,16.53
2023-06-06T11:27:25.877Z,16.55
2023-06-06T11:29:53.529Z,16.59
2023-06-06T11:32:21.458Z,16.65
2023-06-06T11:34:49.296Z,16.69
2023-06-06T11:37:17.713Z,16.72
2023-06-06T11:39:45.286Z,16.68
2023-06-06T11:42:12.968Z,16.60
2023-06-06T11:44:40.723Z,16.62
2023-06-06T11:47:11.098Z,16.69
2023-06-06T11:49:40.138Z,16.76
2023-06-06T11:52:07.726Z,16.89
2023-06-06T11:54:35.291Z,17.05
2023-06-06T11:57:07.472Z,17.07
2023-06-06T11:59:37.385Z,17.11
2023-06-06T12:02:05.169Z,17.17
2023-06-06T12:04:32.736Z,17.26
2023-06-06T12:07:05.004Z,17.30
2023-06-06T12:09:33.653Z,17.30
2023-06-06T12:12:02.627Z,17.20
2023-06-06T12:14:30.251Z,17.12
2023-06-06T12:16:58.136Z,17.14
2023-06-06T12:19:25.770Z,17.19
2023-06-06T12:21:53.465Z,17.26
2023-06-06T12:24:21.311Z,17.26
2023-06-06T12:26:54.690Z,17.29
2023-06-06T12:29:22.439Z,17.33
2023-06-06T12:31:50.483Z,17.32
2023-06-06T12:34:18.267Z,17.33
2023-06-06T12:36:46.350Z,17.37
2023-06-06T12:39:14.431Z,17.39
2023-06-06T12:41:42.033Z,17.44
2023-06-06T12:44:12.333Z,17.47
2023-06-06T12:46:40.330Z,17.52
2023-06-06T12:49:08.121Z,17.56
2023-06-06T12:51:36.921Z,17.54
2023-06-06T12:54:04.697Z,17.52
2023-06-06T12:56:32.769Z,17.47
2023-06-06T12:59:01.509Z,17.47
2023-06-06T13:01:30.638Z,17.56
2023-06-06T13:03:59.549Z,17.67
2023-06-06T13:06:27.295Z,17.74
2023-06-06T13:08:54.942Z,17.86
2023-06-06T13:11:23.836Z,17.99
2023-06-06T13:13:51.588Z,18.08
2023-06-06T13:16:19.942Z,18.04
2023-06-06T13:18:47.934Z,18.11
2023-06-06T13:21:16.778Z,18.12
2023-06-06T13:23:44.351Z,18.02
2023-06-06T13:26:12.529Z,18.01
2023-06-06T13:28:40.134Z,17.99
2023-06-06T13:31:07.759Z,18.05
2023-06-06T13:33:35.467Z,18.05
2023-06-06T13:36:03.096Z,18.03
2023-06-06T13:38:30.826Z,18.09
2023-06-06T13:40:58.515Z,18.04
2023-06-06T13:43:26.362Z,18.05
2023-06-06T13:45:54.764Z,18.03
2023-06-06T13:48:22.919Z,18.09
2023-06-06T13:50:51.101Z,18.09
2023-06-06T13:53:21.990Z,18.10
2023-06-06T13:55:50.443Z,18.11
2023-06-06T13:58:23.674Z,18.14
2023-06-06T14:00:54.019Z,18.10
2023-06-06T14:03:21.783Z,18.14
2023-06-06T14:05:49.934Z,18.13
2023-06-06T14:08:17.817Z,18.10
2023-06-06T14:10:46.720Z,18.03
2023-06-06T14:13:14.406Z,17.94
2023-06-06T14:15:42.242Z,17.93
2023-06-06T14:18:10.223Z,17.95
2023-06-06T14:20:49.933Z,17.91
2023-06-06T14:23:17.613Z,17.85
2023-06-06T14:25:46.158Z,17.77
2023-06-06T14:28:13.724Z,17.72
2023-06-06T14:30:41.277Z,17.71
2023-06-06T14:33:09.052Z,17.67
2023-06-06T14:35:40.925Z,17.65
2023-06-06T14:38:09.112Z,17.68
2023-06-06T14:40:36.739Z,17.71
2023-06-06T14:43:04.626Z,17.75
2023-06-06T14:45:32.112Z,17.73
2023-06-06T14:47:59.914Z,17.73
2023-06-06T14:50:28.747Z,17.77
2023-06-06T14:52:56.316Z,17.77
2023-06-06T14:55:24.007Z,17.75
2023-06-06T14:57:51.771Z,17.70
2023-06-06T15:00:20.018Z,17.69
2023-06-06T15:02:47.864Z,17.74
2023-06-06T15:05:15.915Z,17.76
2023-06-06T15:07:43.986Z,17.74
2023-06-06T15:10:12.215Z,17.77
2023-06-06T15:12:40.243Z,17.80
2023-06-06T15:15:08.385Z,17.83
2023-06-06T15:17:36.276Z,17.84
2023-06-06T15:20:03.882Z,17.89
2023-06-06T15:22:31.722Z,17.92
2023-06-06T15:24:59.343Z,17.93
2023-06-06T15:27:27.503Z,17.86
2023-06-06T15:29:57.193Z,17.76
2023-06-06T15:32:25.022Z,17.72
2023-06-06T15:34:53.209Z,17.75
2023-06-06T15:37:22.250Z,17.75
2023-06-06T15:39:50.146Z,17.69
2023-06-06T15:42:18.274Z,17.59
2023-06-06T15:44:46.582Z,17.54
2023-06-06T15:47:14.495Z,17.50
2023-06-06T15:49:42.138Z,17.45
2023-06-06T15:52:09.812Z,17.40
2023-06-06T15:54:37.384Z,17.36
2023-06-06T15:57:05.058Z,17.33
2023-06-06T15:59:36.008Z,17.32
2023-06-06T16:02:05.638Z,17.37
2023-06-06T16:04:33.604Z,17.43
2023-06-06T16:07:01.481Z,17.44
2023-06-06T16:09:29.945Z,17.44
2023-06-06T16:11:58.892Z,17.39
2023-06-06T16:14:26.514Z,17.34
2023-06-06T16:16:55.675Z,17.27
2023-06-06T16:19:23.480Z,17.27
2023-06-06T16:21:51.215Z,17.29
2023-06-06T16:24:18.928Z,17.31
2023-06-06T16:26:46.708Z,17.28
2023-06-06T16:29:14.272Z,17.25
2023-06-06T16:31:42.392Z,17.24
2023-06-06T16:36:39.280Z,17.25
2023-06-06T16:39:08.751Z,17.25
2023-06-06T16:41:36.411Z,17.23
2023-06-06T16:44:04.007Z,17.20
2023-06-06T16:46:31.993Z,17.17
2023-06-06T16:49:00.986Z,17.15
2023-06-06T16:51:28.622Z,17.12
2023-06-06T16:53:56.467Z,17.10
2023-06-06T16:56:24.522Z,17.09
2023-06-06T16:58:52.693Z,17.10
2023-06-06T17:01:20.378Z,17.10
2023-06-06T17:03:50.346Z,17.10
2023-06-06T17:06:17.867Z,17.10
2023-06-06T17:08:45.973Z,17.11
2023-06-06T17:11:13.679Z,17.09
2023-06-06T17:13:41.831Z,17.09
2023-06-06T17:16:09.576Z,17.09
2023-06-06T17:18:37.145Z,17.07
2023-06-06T17:21:09.212Z,17.07
2023-06-06T17:23:37.508Z,17.11
2023-06-06T17:26:05.245Z,17.05
2023-06-06T17:28:32.911Z,17.01
2023-06-06T17:31:02.751Z,16.97
2023-06-06T17:33:30.586Z,16.94
2023-06-06T17:35:58.386Z,16.96
2023-06-06T17:38:26.135Z,16.91
2023-06-06T17:40:54.057Z,16.83
2023-06-06T17:43:21.644Z,16.77
2023-06-06T17:45:49.755Z,16.77
2023-06-06T17:48:17.467Z,16.74
2023-06-06T17:50:45.818Z,16.72
2023-06-06T17:53:13.837Z,16.70
2023-06-06T17:55:42.821Z,16.65
2023-06-06T17:58:11.301Z,16.60
2023-06-06T18:00:39.641Z,16.56
2023-06-06T18:03:07.874Z,16.55
2023-06-06T18:05:37.343Z,16.56
2023-06-06T18:08:05.698Z,16.53
2023-06-06T18:10:34.238Z,16.52
2023-06-06T18:13:03.665Z,16.49
2023-06-06T18:15:31.588Z,16.48
2023-06-06T18:17:59.421Z,16.48
2023-06-06T18:20:27.531Z,16.47
2023-06-06T18:22:57.153Z,16.44
2023-06-06T18:25:26.037Z,16.40
2023-06-06T18:27:54.653Z,16.34
2023-06-06T18:30:22.943Z,16.31
2023-06-06T18:32:52.887Z,16.26
2023-06-06T18:35:22.423Z,16.24
2023-06-06T18:37:57.291Z,16.20
2023-06-06T18:40:26.386Z,16.18
2023-06-06T18:42:55.422Z,16.17
2023-06-06T18:45:23.627Z,16.15
2023-06-06T18:47:57.448Z,16.12
2023-06-06T18:50:25.761Z,16.10
2023-06-06T18:52:54.740Z,16.08
2023-06-06T18:55:23.784Z,16.06
2023-06-06T18:57:51.869Z,16.04
2023-06-06T19:00:19.829Z,16.03
2023-06-06T19:02:51.220Z,16.03
2023-06-06T19:05:19.458Z,16.03
2023-06-06T19:07:48.650Z,16.04
2023-06-06T19:10:20.883Z,16.04
2023-06-06T19:12:53.001Z,16.04
2023-06-06T19:15:23.149Z,16.03
2023-06-06T19:17:51.568Z,16.01
2023-06-06T19:20:20.013Z,16.00
2023-06-06T19:22:47.791Z,16.01
2023-06-06T19:25:16.059Z,16.01
2023-06-06T19:27:44.827Z,16.02
2023-06-06T19:30:14.476Z,16.01
2023-06-06T19:32:42.553Z,16.00
2023-06-06T19:35:16.922Z,15.99
2023-06-06T19:37:48.641Z,15.99
2023-06-06T19:40:16.180Z,16.00
2023-06-06T19:42:44.283Z,15.99
2023-06-06T19:45:12.392Z,15.99
2023-06-06T19:47:41.718Z,16.00
2023-06-06T19:50:10.814Z,15.98
2023-06-06T19:52:38.748Z,15.98
2023-06-06T19:55:06.408Z,15.97
2023-06-06T19:57:36.074Z,15.96
2023-06-06T20:00:05.060Z,15.95
2023-06-06T20:02:33.214Z,15.93
2023-06-06T20:05:01.129Z,15.90
2023-06-06T20:07:28.844Z,15.86
2023-06-06T20:09:57.735Z,15.85
2023-06-06T20:12:25.480Z,15.83
2023-06-06T20:14:53.401Z,15.80
2023-06-06T20:17:21.737Z,15.77
2023-06-06T20:19:49.620Z,15.75
2023-06-06T20:22:17.313Z,15.76
2023-06-06T20:24:45.098Z,15.73
2023-06-06T20:27:12.723Z,15.71
2023-06-06T20:29:42.082Z,15.69
2023-06-06T20:32:09.663Z,15.63
2023-06-06T20:34:37.777Z,15.60
2023-06-06T20:37:07.344Z,15.59
2023-06-06T20:39:53.107Z,15.58
2023-06-06T20:42:21.707Z,15.57
2023-06-06T20:44:49.323Z,15.56
2023-06-06T20:47:17.976Z,15.53
2023-06-06T20:49:45.862Z,15.51
2023-06-06T20:52:13.594Z,15.47
2023-06-06T20:54:41.870Z,15.45
2023-06-06T20:57:09.607Z,15.43
2023-06-06T20:59:37.172Z,15.42
2023-06-06T21:02:05.070Z,15.41
2023-06-06T21:04:33.056Z,15.39
2023-06-06T21:07:00.622Z,15.40
2023-06-06T21:09:28.935Z,15.40
2023-06-06T21:11:57.282Z,15.41
2023-06-06T21:14:24.872Z,15.40
2023-06-06T21:16:52.430Z,15.38
2023-06-06T21:19:20.097Z,15.35
2023-06-06T21:21:47.626Z,15.30
2023-06-06T21:24:15.245Z,15.29
2023-06-06T21:26:43.901Z,15.26
2023-06-06T21:29:11.389Z,15.24
2023-06-06T21:31:39.100Z,15.22
2023-06-06T21:34:06.843Z,15.21
2023-06-06T21:36:34.337Z,15.19
2023-06-06T21:39:01.867Z,15.16
2023-06-06T21:41:29.397Z,15.15
2023-06-06T21:43:56.924Z,15.15
2023-06-06T21:46:24.984Z,15.14
2023-06-06T21:48:52.579Z,15.15
2023-06-06T21:51:20.301Z,15.13
2023-06-06T21:53:47.893Z,15.13
2023-06-06T21:56:15.514Z,15.11
2023-06-06T21:58:43.163Z,15.05
2023-06-06T22:01:12.549Z,15.00
2023-06-06T22:03:40.271Z,14.98
2023-06-06T22:06:09.444Z,14.98
2023-06-06T22:08:37.032Z,14.99
2023-06-06T22:11:04.563Z,15.01
2023-06-06T22:13:32.186Z,15.05
2023-06-06T22:16:02.747Z,15.09
2023-06-06T22:18:30.315Z,15.10
2023-06-06T22:20:57.856Z,15.08
2023-06-06T22:23:26.256Z,15.07
2023-06-06T22:26:10.141Z,15.06
2023-06-06T22:28:50.152Z,15.06
2023-06-06T22:31:18.336Z,15.05
2023-06-06T22:33:51.942Z,15.04
2023-06-06T22:36:19.735Z,15.04
2023-06-06T22:38:47.408Z,15.04
2023-06-06T22:41:14.973Z,15.06
2023-06-06T22:43:42.960Z,15.04
2023-06-06T22:46:10.919Z,15.05
2023-06-06T22:48:38.646Z,15.07
2023-06-06T22:51:06.705Z,15.05
2023-06-06T22:53:34.285Z,15.06
2023-06-06T22:56:01.828Z,15.06
2023-06-06T22:58:30.054Z,15.07
2023-06-06T23:00:57.637Z,15.05
2023-06-06T23:03:25.362Z,15.03
2023-06-06T23:05:53.444Z,15.01
2023-06-06T23:08:21.086Z,14.98
2023-06-06T23:10:48.748Z,14.96
2023-06-06T23:13:16.330Z,14.94
2023-06-06T23:15:45.417Z,14.92
2023-06-06T23:18:13.697Z,14.91
2023-06-06T23:20:41.918Z,14.91
2023-06-06T23:23:09.476Z,14.92
2023-06-06T23:25:36.994Z,14.93
2023-06-06T23:28:06.979Z,14.95
2023-06-06T23:30:34.455Z,14.97
2023-06-06T23:33:02.057Z,15.01
2023-06-06T23:35:29.701Z,15.00
2023-06-06T23:37:57.366Z,15.00
2023-06-06T23:40:24.957Z,15.03
2023-06-06T23:42:52.752Z,15.06
2023-06-06T23:45:20.340Z,15.05
2023-06-06T23:47:47.926Z,14.99
2023-06-06T23:50:15.503Z,14.97
2023-06-06T23:53:01.913Z,14.98
2023-06-06T23:55:29.483Z,15.00
2023-06-06T23:57:57.007Z,15.00
